sensor_id;sensor_type;location;lat;lon;timestamp;P1;durP1;ratioP1;P2;durP2;ratioP2
76552;SDS011;65395;53.168;18.156;2024-01-25T00:02:24;10.30;;;2.10;;
76552;SDS011;65395;53.168;18.156;2024-01-25T00:04:51;6.30;;;1.20;;
76552;SDS011;65395;53.168;18.156;2024-01-25T00:07:18;10.50;;;1.20;;
76552;SDS011;65395;53.168;18.156;2024-01-25T00:09:45;6.80;;;1.10;;
76552;SDS011;65395;53.168;18.156;2024-01-25T00:12:12;10.00;;;1.20;;
76552;SDS011;65395;53.168;18.156;2024-01-25T00:14:39;7.00;;;1.00;;
76552;SDS011;65395;53.168;18.156;2024-01-25T00:17:06;9.80;;;1.10;;
76552;SDS011;65395;53.168;18.156;2024-01-25T00:19:33;9.90;;;1.50;;
76552;SDS011;65395;53.168;18.156;2024-01-25T00:22:00;11.20;;;1.70;;
76552;SDS011;65395;53.168;18.156;2024-01-25T00:24:27;7.70;;;1.30;;
76552;SDS011;65395;53.168;18.156;2024-01-25T00:26:54;10.30;;;1.60;;
76552;SDS011;65395;53.168;18.156;2024-01-25T00:29:21;12.10;;;2.10;;
76552;SDS011;65395;53.168;18.156;2024-01-25T00:31:48;11.70;;;1.50;;
76552;SDS011;65395;53.168;18.156;2024-01-25T00:34:15;9.90;;;1.70;;
76552;SDS011;65395;53.168;18.156;2024-01-25T00:36:42;12.70;;;1.60;;
76552;SDS011;65395;53.168;18.156;2024-01-25T00:39:09;11.70;;;1.40;;
76552;SDS011;65395;53.168;18.156;2024-01-25T00:41:36;18.60;;;2.10;;
76552;SDS011;65395;53.168;18.156;2024-01-25T00:44:04;11.00;;;1.40;;
76552;SDS011;65395;53.168;18.156;2024-01-25T00:46:31;10.90;;;1.60;;
76552;SDS011;65395;53.168;18.156;2024-01-25T00:48:58;13.20;;;1.80;;
76552;SDS011;65395;53.168;18.156;2024-01-25T00:51:25;17.50;;;2.10;;
76552;SDS011;65395;53.168;18.156;2024-01-25T00:53:52;15.80;;;1.60;;
76552;SDS011;65395;53.168;18.156;2024-01-25T00:56:19;14.30;;;1.80;;
76552;SDS011;65395;53.168;18.156;2024-01-25T00:58:46;19.70;;;2.40;;
76552;SDS011;65395;53.168;18.156;2024-01-25T01:01:13;11.20;;;1.40;;
76552;SDS011;65395;53.168;18.156;2024-01-25T01:03:40;15.20;;;1.80;;
76552;SDS011;65395;53.168;18.156;2024-01-25T01:06:08;14.30;;;2.00;;
76552;SDS011;65395;53.168;18.156;2024-01-25T01:08:35;14.90;;;2.50;;
76552;SDS011;65395;53.168;18.156;2024-01-25T01:11:02;17.10;;;2.10;;
76552;SDS011;65395;53.168;18.156;2024-01-25T01:13:30;11.40;;;1.70;;
76552;SDS011;65395;53.168;18.156;2024-01-25T01:15:57;10.50;;;1.80;;
76552;SDS011;65395;53.168;18.156;2024-01-25T01:18:24;13.70;;;1.60;;
76552;SDS011;65395;53.168;18.156;2024-01-25T01:20:50;12.60;;;1.80;;
76552;SDS011;65395;53.168;18.156;2024-01-25T01:23:17;11.30;;;1.50;;
76552;SDS011;65395;53.168;18.156;2024-01-25T01:25:44;9.00;;;1.60;;
76552;SDS011;65395;53.168;18.156;2024-01-25T01:28:11;12.50;;;1.40;;
76552;SDS011;65395;53.168;18.156;2024-01-25T01:30:38;9.50;;;1.60;;
76552;SDS011;65395;53.168;18.156;2024-01-25T01:33:08;7.60;;;1.10;;
76552;SDS011;65395;53.168;18.156;2024-01-25T01:35:35;9.30;;;1.10;;
76552;SDS011;65395;53.168;18.156;2024-01-25T01:38:02;11.20;;;1.70;;
76552;SDS011;65395;53.168;18.156;2024-01-25T01:40:30;12.60;;;1.70;;
76552;SDS011;65395;53.168;18.156;2024-01-25T01:43:00;12.70;;;1.40;;
76552;SDS011;65395;53.168;18.156;2024-01-25T01:45:28;15.20;;;1.70;;
76552;SDS011;65395;53.168;18.156;2024-01-25T01:47:56;12.20;;;1.60;;
76552;SDS011;65395;53.168;18.156;2024-01-25T01:50:24;12.20;;;1.90;;
76552;SDS011;65395;53.168;18.156;2024-01-25T01:52:51;9.50;;;1.60;;
76552;SDS011;65395;53.168;18.156;2024-01-25T01:55:19;13.40;;;1.60;;
76552;SDS011;65395;53.168;18.156;2024-01-25T01:57:47;13.70;;;1.80;;
76552;SDS011;65395;53.168;18.156;2024-01-25T02:00:14;11.50;;;1.10;;
76552;SDS011;65395;53.168;18.156;2024-01-25T02:02:43;15.50;;;2.00;;
76552;SDS011;65395;53.168;18.156;2024-01-25T02:05:11;13.60;;;1.80;;
76552;SDS011;65395;53.168;18.156;2024-01-25T02:07:39;12.20;;;1.70;;
76552;SDS011;65395;53.168;18.156;2024-01-25T02:10:07;14.70;;;2.10;;
76552;SDS011;65395;53.168;18.156;2024-01-25T02:12:35;14.70;;;1.90;;
76552;SDS011;65395;53.168;18.156;2024-01-25T02:15:03;14.10;;;2.10;;
76552;SDS011;65395;53.168;18.156;2024-01-25T02:17:30;13.00;;;2.50;;
76552;SDS011;65395;53.168;18.156;2024-01-25T02:19:57;17.40;;;2.60;;
76552;SDS011;65395;53.168;18.156;2024-01-25T02:22:24;16.00;;;1.90;;
76552;SDS011;65395;53.168;18.156;2024-01-25T02:24:51;14.30;;;1.60;;
76552;SDS011;65395;53.168;18.156;2024-01-25T02:27:18;14.40;;;2.30;;
76552;SDS011;65395;53.168;18.156;2024-01-25T02:29:45;15.80;;;2.60;;
76552;SDS011;65395;53.168;18.156;2024-01-25T02:32:12;13.10;;;1.70;;
76552;SDS011;65395;53.168;18.156;2024-01-25T02:34:39;13.00;;;1.60;;
76552;SDS011;65395;53.168;18.156;2024-01-25T02:37:06;13.10;;;1.50;;
76552;SDS011;65395;53.168;18.156;2024-01-25T02:39:33;15.90;;;1.50;;
76552;SDS011;65395;53.168;18.156;2024-01-25T02:41:59;14.30;;;2.00;;
76552;SDS011;65395;53.168;18.156;2024-01-25T02:44:26;11.40;;;1.30;;
76552;SDS011;65395;53.168;18.156;2024-01-25T02:46:53;13.30;;;1.60;;
76552;SDS011;65395;53.168;18.156;2024-01-25T02:49:20;9.90;;;1.10;;
76552;SDS011;65395;53.168;18.156;2024-01-25T02:51:47;11.00;;;1.90;;
76552;SDS011;65395;53.168;18.156;2024-01-25T02:54:14;9.70;;;1.60;;
76552;SDS011;65395;53.168;18.156;2024-01-25T02:56:41;10.50;;;1.40;;
76552;SDS011;65395;53.168;18.156;2024-01-25T02:59:08;9.10;;;1.20;;
76552;SDS011;65395;53.168;18.156;2024-01-25T03:01:39;9.00;;;1.30;;
76552;SDS011;65395;53.168;18.156;2024-01-25T03:04:08;9.80;;;1.60;;
76552;SDS011;65395;53.168;18.156;2024-01-25T03:06:35;8.50;;;1.30;;
76552;SDS011;65395;53.168;18.156;2024-01-25T03:09:02;12.20;;;1.60;;
76552;SDS011;65395;53.168;18.156;2024-01-25T03:11:31;6.60;;;1.00;;
76552;SDS011;65395;53.168;18.156;2024-01-25T03:13:58;9.00;;;1.60;;
76552;SDS011;65395;53.168;18.156;2024-01-25T03:16:25;10.30;;;1.60;;
76552;SDS011;65395;53.168;18.156;2024-01-25T03:18:52;12.40;;;1.20;;
76552;SDS011;65395;53.168;18.156;2024-01-25T03:21:19;8.30;;;1.30;;
76552;SDS011;65395;53.168;18.156;2024-01-25T03:23:46;14.50;;;2.00;;
76552;SDS011;65395;53.168;18.156;2024-01-25T03:26:13;11.60;;;1.30;;
76552;SDS011;65395;53.168;18.156;2024-01-25T03:28:39;8.70;;;1.60;;
76552;SDS011;65395;53.168;18.156;2024-01-25T03:31:06;15.10;;;1.90;;
76552;SDS011;65395;53.168;18.156;2024-01-25T03:33:33;10.70;;;1.50;;
76552;SDS011;65395;53.168;18.156;2024-01-25T03:36:02;9.50;;;1.10;;
76552;SDS011;65395;53.168;18.156;2024-01-25T03:38:29;9.20;;;1.40;;
76552;SDS011;65395;53.168;18.156;2024-01-25T03:40:56;9.30;;;1.60;;
76552;SDS011;65395;53.168;18.156;2024-01-25T03:43:25;15.80;;;2.00;;
76552;SDS011;65395;53.168;18.156;2024-01-25T03:45:52;12.80;;;1.50;;
76552;SDS011;65395;53.168;18.156;2024-01-25T03:48:19;10.40;;;1.30;;
76552;SDS011;65395;53.168;18.156;2024-01-25T03:50:46;11.10;;;1.40;;
76552;SDS011;65395;53.168;18.156;2024-01-25T03:53:13;9.40;;;1.50;;
76552;SDS011;65395;53.168;18.156;2024-01-25T03:55:41;7.80;;;1.20;;
76552;SDS011;65395;53.168;18.156;2024-01-25T03:58:08;10.70;;;1.30;;
76552;SDS011;65395;53.168;18.156;2024-01-25T04:00:35;11.00;;;1.80;;
76552;SDS011;65395;53.168;18.156;2024-01-25T04:03:02;10.60;;;1.40;;
76552;SDS011;65395;53.168;18.156;2024-01-25T04:05:29;10.00;;;1.40;;
76552;SDS011;65395;53.168;18.156;2024-01-25T04:07:56;9.20;;;1.30;;
76552;SDS011;65395;53.168;18.156;2024-01-25T04:10:22;7.70;;;1.40;;
76552;SDS011;65395;53.168;18.156;2024-01-25T04:12:49;6.00;;;0.70;;
76552;SDS011;65395;53.168;18.156;2024-01-25T04:15:16;7.00;;;0.90;;
76552;SDS011;65395;53.168;18.156;2024-01-25T04:17:43;8.20;;;1.50;;
76552;SDS011;65395;53.168;18.156;2024-01-25T04:20:10;7.90;;;1.00;;
76552;SDS011;65395;53.168;18.156;2024-01-25T04:22:37;7.50;;;1.00;;
76552;SDS011;65395;53.168;18.156;2024-01-25T04:25:04;7.80;;;0.90;;
76552;SDS011;65395;53.168;18.156;2024-01-25T04:27:31;5.50;;;0.80;;
76552;SDS011;65395;53.168;18.156;2024-01-25T04:29:58;5.30;;;0.90;;
76552;SDS011;65395;53.168;18.156;2024-01-25T04:32:25;6.70;;;1.20;;
76552;SDS011;65395;53.168;18.156;2024-01-25T04:34:52;5.40;;;1.00;;
76552;SDS011;65395;53.168;18.156;2024-01-25T04:37:19;6.60;;;0.90;;
76552;SDS011;65395;53.168;18.156;2024-01-25T04:39:46;5.60;;;1.00;;
76552;SDS011;65395;53.168;18.156;2024-01-25T04:42:13;5.40;;;0.90;;
76552;SDS011;65395;53.168;18.156;2024-01-25T04:44:40;5.80;;;0.70;;
76552;SDS011;65395;53.168;18.156;2024-01-25T04:47:06;4.90;;;0.70;;
76552;SDS011;65395;53.168;18.156;2024-01-25T04:49:34;4.90;;;0.80;;
76552;SDS011;65395;53.168;18.156;2024-01-25T04:52:01;5.10;;;0.60;;
76552;SDS011;65395;53.168;18.156;2024-01-25T04:54:28;7.70;;;1.00;;
76552;SDS011;65395;53.168;18.156;2024-01-25T04:56:55;3.70;;;0.70;;
76552;SDS011;65395;53.168;18.156;2024-01-25T04:59:23;7.90;;;0.80;;
76552;SDS011;65395;53.168;18.156;2024-01-25T05:01:50;6.10;;;0.90;;
76552;SDS011;65395;53.168;18.156;2024-01-25T05:04:18;6.40;;;0.70;;
76552;SDS011;65395;53.168;18.156;2024-01-25T05:06:44;6.00;;;0.70;;
76552;SDS011;65395;53.168;18.156;2024-01-25T05:09:12;4.60;;;0.60;;
76552;SDS011;65395;53.168;18.156;2024-01-25T05:11:39;3.80;;;0.60;;
76552;SDS011;65395;53.168;18.156;2024-01-25T05:14:07;3.90;;;0.80;;
76552;SDS011;65395;53.168;18.156;2024-01-25T05:16:34;5.30;;;0.70;;
76552;SDS011;65395;53.168;18.156;2024-01-25T05:19:03;5.10;;;0.60;;
76552;SDS011;65395;53.168;18.156;2024-01-25T05:21:30;3.30;;;0.60;;
76552;SDS011;65395;53.168;18.156;2024-01-25T05:23:57;5.70;;;0.90;;
76552;SDS011;65395;53.168;18.156;2024-01-25T05:26:24;2.50;;;0.50;;
76552;SDS011;65395;53.168;18.156;2024-01-25T05:28:51;3.40;;;0.60;;
76552;SDS011;65395;53.168;18.156;2024-01-25T05:31:18;6.40;;;0.80;;
76552;SDS011;65395;53.168;18.156;2024-01-25T05:33:45;4.60;;;0.80;;
76552;SDS011;65395;53.168;18.156;2024-01-25T05:36:12;4.70;;;0.50;;
76552;SDS011;65395;53.168;18.156;2024-01-25T05:38:40;2.40;;;0.40;;
76552;SDS011;65395;53.168;18.156;2024-01-25T05:41:06;5.30;;;0.90;;
76552;SDS011;65395;53.168;18.156;2024-01-25T05:43:33;2.90;;;0.50;;
76552;SDS011;65395;53.168;18.156;2024-01-25T05:46:01;3.90;;;0.50;;
76552;SDS011;65395;53.168;18.156;2024-01-25T05:48:28;2.90;;;0.40;;
76552;SDS011;65395;53.168;18.156;2024-01-25T05:50:55;3.20;;;0.80;;
76552;SDS011;65395;53.168;18.156;2024-01-25T05:53:22;4.00;;;0.60;;
76552;SDS011;65395;53.168;18.156;2024-01-25T05:55:48;3.20;;;0.40;;
76552;SDS011;65395;53.168;18.156;2024-01-25T05:58:16;2.70;;;0.50;;
76552;SDS011;65395;53.168;18.156;2024-01-25T06:00:43;2.60;;;0.40;;
76552;SDS011;65395;53.168;18.156;2024-01-25T06:03:10;3.40;;;0.40;;
76552;SDS011;65395;53.168;18.156;2024-01-25T06:05:38;2.80;;;0.20;;
76552;SDS011;65395;53.168;18.156;2024-01-25T06:08:05;1.00;;;0.40;;
76552;SDS011;65395;53.168;18.156;2024-01-25T06:10:32;1.60;;;0.40;;
76552;SDS011;65395;53.168;18.156;2024-01-25T06:12:59;1.00;;;0.40;;
76552;SDS011;65395;53.168;18.156;2024-01-25T06:15:26;3.60;;;0.30;;
76552;SDS011;65395;53.168;18.156;2024-01-25T06:17:53;0.70;;;0.20;;
76552;SDS011;65395;53.168;18.156;2024-01-25T06:20:20;1.50;;;0.30;;
76552;SDS011;65395;53.168;18.156;2024-01-25T06:22:47;1.30;;;0.30;;
76552;SDS011;65395;53.168;18.156;2024-01-25T06:25:14;0.50;;;0.20;;
76552;SDS011;65395;53.168;18.156;2024-01-25T06:27:41;0.90;;;0.30;;
76552;SDS011;65395;53.168;18.156;2024-01-25T06:30:08;1.90;;;0.30;;
76552;SDS011;65395;53.168;18.156;2024-01-25T06:32:36;1.80;;;0.30;;
76552;SDS011;65395;53.168;18.156;2024-01-25T06:35:04;1.50;;;0.20;;
76552;SDS011;65395;53.168;18.156;2024-01-25T06:37:31;1.70;;;0.40;;
76552;SDS011;65395;53.168;18.156;2024-01-25T06:39:58;1.70;;;0.60;;
76552;SDS011;65395;53.168;18.156;2024-01-25T06:42:25;0.90;;;0.30;;
76552;SDS011;65395;53.168;18.156;2024-01-25T06:44:52;1.90;;;0.50;;
76552;SDS011;65395;53.168;18.156;2024-01-25T06:47:19;1.40;;;0.30;;
76552;SDS011;65395;53.168;18.156;2024-01-25T06:49:46;2.30;;;0.20;;
76552;SDS011;65395;53.168;18.156;2024-01-25T06:52:18;1.10;;;0.30;;
76552;SDS011;65395;53.168;18.156;2024-01-25T06:54:45;1.00;;;0.20;;
76552;SDS011;65395;53.168;18.156;2024-01-25T06:57:12;2.30;;;0.30;;
76552;SDS011;65395;53.168;18.156;2024-01-25T06:59:40;1.10;;;0.20;;
76552;SDS011;65395;53.168;18.156;2024-01-25T07:02:07;1.30;;;0.30;;
76552;SDS011;65395;53.168;18.156;2024-01-25T07:04:34;1.10;;;0.30;;
76552;SDS011;65395;53.168;18.156;2024-01-25T07:07:01;1.70;;;0.30;;
76552;SDS011;65395;53.168;18.156;2024-01-25T07:09:29;1.60;;;0.40;;
76552;SDS011;65395;53.168;18.156;2024-01-25T07:11:56;3.90;;;0.30;;
76552;SDS011;65395;53.168;18.156;2024-01-25T07:14:23;3.00;;;0.50;;
76552;SDS011;65395;53.168;18.156;2024-01-25T07:16:50;3.90;;;0.40;;
76552;SDS011;65395;53.168;18.156;2024-01-25T07:19:17;1.00;;;0.30;;
76552;SDS011;65395;53.168;18.156;2024-01-25T07:21:44;2.50;;;0.50;;
76552;SDS011;65395;53.168;18.156;2024-01-25T07:24:12;1.50;;;0.60;;
76552;SDS011;65395;53.168;18.156;2024-01-25T07:26:39;2.90;;;0.60;;
76552;SDS011;65395;53.168;18.156;2024-01-25T07:29:05;2.90;;;0.60;;
76552;SDS011;65395;53.168;18.156;2024-01-25T07:31:32;1.70;;;0.40;;
76552;SDS011;65395;53.168;18.156;2024-01-25T07:33:59;2.40;;;0.70;;
76552;SDS011;65395;53.168;18.156;2024-01-25T07:36:26;2.10;;;0.60;;
76552;SDS011;65395;53.168;18.156;2024-01-25T07:38:53;2.40;;;0.50;;
76552;SDS011;65395;53.168;18.156;2024-01-25T07:41:20;1.90;;;0.40;;
76552;SDS011;65395;53.168;18.156;2024-01-25T07:43:47;3.80;;;0.60;;
76552;SDS011;65395;53.168;18.156;2024-01-25T07:46:14;2.40;;;0.50;;
76552;SDS011;65395;53.168;18.156;2024-01-25T07:48:41;3.30;;;0.60;;
76552;SDS011;65395;53.168;18.156;2024-01-25T07:51:12;2.30;;;0.50;;
76552;SDS011;65395;53.168;18.156;2024-01-25T07:53:39;2.90;;;0.60;;
76552;SDS011;65395;53.168;18.156;2024-01-25T07:56:07;2.00;;;0.60;;
76552;SDS011;65395;53.168;18.156;2024-01-25T07:58:35;2.20;;;0.40;;
76552;SDS011;65395;53.168;18.156;2024-01-25T08:01:03;2.90;;;0.70;;
76552;SDS011;65395;53.168;18.156;2024-01-25T08:03:32;3.20;;;0.70;;
76552;SDS011;65395;53.168;18.156;2024-01-25T08:05:59;2.70;;;0.50;;
76552;SDS011;65395;53.168;18.156;2024-01-25T08:08:28;5.40;;;0.80;;
76552;SDS011;65395;53.168;18.156;2024-01-25T08:10:55;2.70;;;0.80;;
76552;SDS011;65395;53.168;18.156;2024-01-25T08:13:22;2.70;;;0.60;;
76552;SDS011;65395;53.168;18.156;2024-01-25T08:15:50;3.00;;;0.80;;
76552;SDS011;65395;53.168;18.156;2024-01-25T08:18:17;2.70;;;0.70;;
76552;SDS011;65395;53.168;18.156;2024-01-25T08:20:45;3.10;;;1.10;;
76552;SDS011;65395;53.168;18.156;2024-01-25T08:23:13;4.70;;;1.00;;
76552;SDS011;65395;53.168;18.156;2024-01-25T08:25:40;3.60;;;0.90;;
76552;SDS011;65395;53.168;18.156;2024-01-25T08:28:08;4.80;;;0.80;;
76552;SDS011;65395;53.168;18.156;2024-01-25T08:30:35;3.80;;;0.90;;
76552;SDS011;65395;53.168;18.156;2024-01-25T08:33:02;3.40;;;0.60;;
76552;SDS011;65395;53.168;18.156;2024-01-25T08:35:29;5.30;;;0.90;;
76552;SDS011;65395;53.168;18.156;2024-01-25T08:37:57;4.20;;;0.80;;
76552;SDS011;65395;53.168;18.156;2024-01-25T08:40:24;4.90;;;0.80;;
76552;SDS011;65395;53.168;18.156;2024-01-25T08:42:51;6.60;;;1.20;;
76552;SDS011;65395;53.168;18.156;2024-01-25T08:45:18;4.50;;;0.90;;
76552;SDS011;65395;53.168;18.156;2024-01-25T08:47:45;4.70;;;1.20;;
76552;SDS011;65395;53.168;18.156;2024-01-25T08:50:13;5.60;;;1.00;;
76552;SDS011;65395;53.168;18.156;2024-01-25T08:52:40;6.20;;;1.00;;
76552;SDS011;65395;53.168;18.156;2024-01-25T08:55:07;5.80;;;0.80;;
76552;SDS011;65395;53.168;18.156;2024-01-25T08:57:36;4.40;;;1.30;;
76552;SDS011;65395;53.168;18.156;2024-01-25T09:00:03;6.40;;;1.20;;
76552;SDS011;65395;53.168;18.156;2024-01-25T09:02:37;4.60;;;0.60;;
76552;SDS011;65395;53.168;18.156;2024-01-25T09:05:05;4.20;;;0.80;;
76552;SDS011;65395;53.168;18.156;2024-01-25T09:07:33;4.80;;;0.80;;
76552;SDS011;65395;53.168;18.156;2024-01-25T09:10:00;6.50;;;1.10;;
76552;SDS011;65395;53.168;18.156;2024-01-25T09:12:27;7.50;;;1.00;;
76552;SDS011;65395;53.168;18.156;2024-01-25T09:14:54;7.80;;;1.20;;
76552;SDS011;65395;53.168;18.156;2024-01-25T09:17:21;8.10;;;1.40;;
76552;SDS011;65395;53.168;18.156;2024-01-25T09:19:48;5.50;;;1.00;;
76552;SDS011;65395;53.168;18.156;2024-01-25T09:22:17;4.50;;;0.70;;
76552;SDS011;65395;53.168;18.156;2024-01-25T09:24:46;7.40;;;1.20;;
76552;SDS011;65395;53.168;18.156;2024-01-25T09:27:13;10.40;;;1.30;;
76552;SDS011;65395;53.168;18.156;2024-01-25T09:29:41;5.00;;;0.80;;
76552;SDS011;65395;53.168;18.156;2024-01-25T09:32:08;6.80;;;1.00;;
76552;SDS011;65395;53.168;18.156;2024-01-25T09:34:36;5.00;;;1.10;;
76552;SDS011;65395;53.168;18.156;2024-01-25T09:37:04;7.40;;;1.00;;
76552;SDS011;65395;53.168;18.156;2024-01-25T09:39:31;3.70;;;0.90;;
76552;SDS011;65395;53.168;18.156;2024-01-25T09:41:59;4.90;;;1.30;;
76552;SDS011;65395;53.168;18.156;2024-01-25T09:44:26;7.40;;;1.10;;
76552;SDS011;65395;53.168;18.156;2024-01-25T09:46:53;4.50;;;0.70;;
76552;SDS011;65395;53.168;18.156;2024-01-25T09:49:21;6.30;;;1.10;;
76552;SDS011;65395;53.168;18.156;2024-01-25T09:51:50;6.60;;;1.10;;
76552;SDS011;65395;53.168;18.156;2024-01-25T09:54:18;6.90;;;1.00;;
76552;SDS011;65395;53.168;18.156;2024-01-25T09:56:45;8.40;;;1.40;;
76552;SDS011;65395;53.168;18.156;2024-01-25T09:59:17;12.10;;;1.40;;
76552;SDS011;65395;53.168;18.156;2024-01-25T10:01:45;8.40;;;1.40;;
76552;SDS011;65395;53.168;18.156;2024-01-25T10:04:15;9.80;;;1.40;;
76552;SDS011;65395;53.168;18.156;2024-01-25T10:06:46;4.30;;;1.20;;
76552;SDS011;65395;53.168;18.156;2024-01-25T10:09:13;7.90;;;1.50;;
76552;SDS011;65395;53.168;18.156;2024-01-25T10:11:40;9.60;;;1.50;;
76552;SDS011;65395;53.168;18.156;2024-01-25T10:14:07;4.80;;;1.00;;
76552;SDS011;65395;53.168;18.156;2024-01-25T10:16:34;5.70;;;1.00;;
76552;SDS011;65395;53.168;18.156;2024-01-25T10:19:04;7.10;;;1.10;;
76552;SDS011;65395;53.168;18.156;2024-01-25T10:21:35;8.30;;;1.20;;
76552;SDS011;65395;53.168;18.156;2024-01-25T10:24:02;6.70;;;1.30;;
76552;SDS011;65395;53.168;18.156;2024-01-25T10:26:31;7.00;;;1.10;;
76552;SDS011;65395;53.168;18.156;2024-01-25T10:29:00;7.10;;;1.20;;
76552;SDS011;65395;53.168;18.156;2024-01-25T10:31:29;9.10;;;1.30;;
76552;SDS011;65395;53.168;18.156;2024-01-25T10:33:57;6.50;;;1.00;;
76552;SDS011;65395;53.168;18.156;2024-01-25T10:36:24;9.10;;;1.40;;
76552;SDS011;65395;53.168;18.156;2024-01-25T10:38:53;10.80;;;1.30;;
76552;SDS011;65395;53.168;18.156;2024-01-25T10:41:21;5.80;;;1.00;;
76552;SDS011;65395;53.168;18.156;2024-01-25T10:43:50;7.90;;;1.30;;
76552;SDS011;65395;53.168;18.156;2024-01-25T10:46:18;4.70;;;0.80;;
76552;SDS011;65395;53.168;18.156;2024-01-25T10:48:45;6.50;;;1.10;;
76552;SDS011;65395;53.168;18.156;2024-01-25T10:51:13;6.10;;;1.70;;
76552;SDS011;65395;53.168;18.156;2024-01-25T10:53:44;7.50;;;1.30;;
76552;SDS011;65395;53.168;18.156;2024-01-25T10:56:12;6.50;;;1.20;;
76552;SDS011;65395;53.168;18.156;2024-01-25T10:58:40;5.60;;;1.10;;
76552;SDS011;65395;53.168;18.156;2024-01-25T11:01:08;3.70;;;0.90;;
76552;SDS011;65395;53.168;18.156;2024-01-25T11:03:38;4.60;;;1.50;;
76552;SDS011;65395;53.168;18.156;2024-01-25T11:06:07;7.10;;;1.30;;
76552;SDS011;65395;53.168;18.156;2024-01-25T11:08:36;7.20;;;1.60;;
76552;SDS011;65395;53.168;18.156;2024-01-25T11:11:06;7.70;;;0.80;;
76552;SDS011;65395;53.168;18.156;2024-01-25T11:13:37;8.20;;;2.40;;
76552;SDS011;65395;53.168;18.156;2024-01-25T11:16:13;6.70;;;1.90;;
76552;SDS011;65395;53.168;18.156;2024-01-25T11:21:21;7.10;;;1.70;;
76552;SDS011;65395;53.168;18.156;2024-01-25T11:24:04;6.60;;;1.60;;
76552;SDS011;65395;53.168;18.156;2024-01-25T11:26:32;8.30;;;2.00;;
76552;SDS011;65395;53.168;18.156;2024-01-25T11:28:59;4.00;;;0.80;;
76552;SDS011;65395;53.168;18.156;2024-01-25T11:31:27;4.70;;;0.80;;
76552;SDS011;65395;53.168;18.156;2024-01-25T11:33:58;6.60;;;1.00;;
76552;SDS011;65395;53.168;18.156;2024-01-25T11:36:26;4.60;;;1.10;;
76552;SDS011;65395;53.168;18.156;2024-01-25T11:38:54;2.60;;;0.80;;
76552;SDS011;65395;53.168;18.156;2024-01-25T11:41:21;6.20;;;1.40;;
76552;SDS011;65395;53.168;18.156;2024-01-25T11:43:48;3.30;;;0.90;;
76552;SDS011;65395;53.168;18.156;2024-01-25T11:46:16;7.30;;;1.30;;
76552;SDS011;65395;53.168;18.156;2024-01-25T11:48:43;4.90;;;1.00;;
76552;SDS011;65395;53.168;18.156;2024-01-25T11:51:10;5.30;;;1.10;;
76552;SDS011;65395;53.168;18.156;2024-01-25T11:53:37;6.00;;;1.60;;
76552;SDS011;65395;53.168;18.156;2024-01-25T11:56:05;4.60;;;1.00;;
76552;SDS011;65395;53.168;18.156;2024-01-25T11:58:36;6.00;;;1.40;;
76552;SDS011;65395;53.168;18.156;2024-01-25T12:01:05;4.10;;;1.30;;
76552;SDS011;65395;53.168;18.156;2024-01-25T12:03:34;5.50;;;1.10;;
76552;SDS011;65395;53.168;18.156;2024-01-25T12:06:03;8.00;;;1.10;;
76552;SDS011;65395;53.168;18.156;2024-01-25T12:08:31;4.60;;;1.00;;
76552;SDS011;65395;53.168;18.156;2024-01-25T12:11:08;4.50;;;0.80;;
76552;SDS011;65395;53.168;18.156;2024-01-25T12:13:36;5.70;;;1.10;;
76552;SDS011;65395;53.168;18.156;2024-01-25T12:16:06;4.70;;;1.10;;
76552;SDS011;65395;53.168;18.156;2024-01-25T12:18:33;6.80;;;1.40;;
76552;SDS011;65395;53.168;18.156;2024-01-25T12:21:02;4.00;;;1.00;;
76552;SDS011;65395;53.168;18.156;2024-01-25T12:23:31;7.60;;;1.70;;
76552;SDS011;65395;53.168;18.156;2024-01-25T12:26:00;5.20;;;1.00;;
76552;SDS011;65395;53.168;18.156;2024-01-25T12:28:28;4.30;;;0.80;;
76552;SDS011;65395;53.168;18.156;2024-01-25T12:30:56;4.80;;;1.00;;
76552;SDS011;65395;53.168;18.156;2024-01-25T12:33:23;6.80;;;1.10;;
76552;SDS011;65395;53.168;18.156;2024-01-25T12:35:50;5.50;;;1.30;;
76552;SDS011;65395;53.168;18.156;2024-01-25T12:38:17;6.80;;;1.40;;
76552;SDS011;65395;53.168;18.156;2024-01-25T12:40:46;6.40;;;1.40;;
76552;SDS011;65395;53.168;18.156;2024-01-25T12:43:15;5.90;;;1.10;;
76552;SDS011;65395;53.168;18.156;2024-01-25T12:45:42;6.70;;;0.90;;
76552;SDS011;65395;53.168;18.156;2024-01-25T12:48:09;6.50;;;1.20;;
76552;SDS011;65395;53.168;18.156;2024-01-25T12:50:37;6.20;;;0.90;;
76552;SDS011;65395;53.168;18.156;2024-01-25T12:53:04;4.90;;;1.00;;
76552;SDS011;65395;53.168;18.156;2024-01-25T12:55:32;7.90;;;1.10;;
76552;SDS011;65395;53.168;18.156;2024-01-25T12:58:01;3.70;;;1.10;;
76552;SDS011;65395;53.168;18.156;2024-01-25T13:00:28;4.70;;;1.20;;
76552;SDS011;65395;53.168;18.156;2024-01-25T13:02:54;3.80;;;1.00;;
76552;SDS011;65395;53.168;18.156;2024-01-25T13:05:23;6.20;;;1.30;;
76552;SDS011;65395;53.168;18.156;2024-01-25T13:07:50;4.70;;;1.30;;
76552;SDS011;65395;53.168;18.156;2024-01-25T13:10:17;4.70;;;1.10;;
76552;SDS011;65395;53.168;18.156;2024-01-25T13:12:44;5.20;;;1.60;;
76552;SDS011;65395;53.168;18.156;2024-01-25T13:15:11;5.60;;;1.30;;
76552;SDS011;65395;53.168;18.156;2024-01-25T13:17:38;4.20;;;1.60;;
76552;SDS011;65395;53.168;18.156;2024-01-25T13:20:05;4.30;;;1.70;;
76552;SDS011;65395;53.168;18.156;2024-01-25T13:22:33;7.90;;;2.20;;
76552;SDS011;65395;53.168;18.156;2024-01-25T13:25:01;6.80;;;2.30;;
76552;SDS011;65395;53.168;18.156;2024-01-25T13:27:29;3.10;;;1.00;;
76552;SDS011;65395;53.168;18.156;2024-01-25T13:29:56;3.00;;;1.70;;
76552;SDS011;65395;53.168;18.156;2024-01-25T13:32:23;2.00;;;1.00;;
76552;SDS011;65395;53.168;18.156;2024-01-25T13:34:50;4.60;;;2.20;;
76552;SDS011;65395;53.168;18.156;2024-01-25T13:37:17;3.10;;;1.70;;
76552;SDS011;65395;53.168;18.156;2024-01-25T13:39:44;3.80;;;2.00;;
76552;SDS011;65395;53.168;18.156;2024-01-25T13:42:11;2.10;;;1.30;;
76552;SDS011;65395;53.168;18.156;2024-01-25T13:44:38;5.80;;;2.70;;
76552;SDS011;65395;53.168;18.156;2024-01-25T13:47:05;2.60;;;1.10;;
76552;SDS011;65395;53.168;18.156;2024-01-25T13:49:32;3.70;;;1.80;;
76552;SDS011;65395;53.168;18.156;2024-01-25T13:52:01;2.70;;;0.90;;
76552;SDS011;65395;53.168;18.156;2024-01-25T13:54:30;3.90;;;2.10;;
76552;SDS011;65395;53.168;18.156;2024-01-25T13:56:57;6.10;;;2.60;;
76552;SDS011;65395;53.168;18.156;2024-01-25T13:59:24;3.20;;;1.50;;
76552;SDS011;65395;53.168;18.156;2024-01-25T14:01:52;16.00;;;6.50;;
76552;SDS011;65395;53.168;18.156;2024-01-25T14:04:19;2.60;;;1.30;;
76552;SDS011;65395;53.168;18.156;2024-01-25T14:06:46;1.60;;;0.90;;
76552;SDS011;65395;53.168;18.156;2024-01-25T14:09:13;2.60;;;1.20;;
76552;SDS011;65395;53.168;18.156;2024-01-25T14:11:40;3.90;;;2.00;;
76552;SDS011;65395;53.168;18.156;2024-01-25T14:14:08;2.40;;;0.90;;
76552;SDS011;65395;53.168;18.156;2024-01-25T14:16:35;4.10;;;1.90;;
76552;SDS011;65395;53.168;18.156;2024-01-25T14:19:02;3.80;;;1.60;;
76552;SDS011;65395;53.168;18.156;2024-01-25T14:21:31;4.10;;;1.90;;
76552;SDS011;65395;53.168;18.156;2024-01-25T14:23:58;2.90;;;1.80;;
76552;SDS011;65395;53.168;18.156;2024-01-25T14:26:25;3.60;;;1.30;;
76552;SDS011;65395;53.168;18.156;2024-01-25T14:28:52;3.70;;;1.60;;
76552;SDS011;65395;53.168;18.156;2024-01-25T14:31:19;3.50;;;1.30;;
76552;SDS011;65395;53.168;18.156;2024-01-25T14:33:46;2.10;;;1.20;;
76552;SDS011;65395;53.168;18.156;2024-01-25T14:36:13;4.40;;;1.20;;